sensor_id;sensor_type;location;lat;lon;timestamp;temperature;humidity
67890;DHT22;54685;52.082;5.426;2022-11-15T00:01:27;7.30;99.90
67890;DHT22;54685;52.082;5.426;2022-11-15T00:04:12;7.20;99.90
67890;DHT22;54685;52.082;5.426;2022-11-15T00:06:58;7.30;99.90
67890;DHT22;54685;52.082;5.426;2022-11-15T00:09:43;7.30;99.90
67890;DHT22;54685;52.082;5.426;2022-11-15T00:12:30;7.30;99.90
67890;DHT22;54685;52.082;5.426;2022-11-15T00:15:16;7.30;99.90
67890;DHT22;54685;52.082;5.426;2022-11-15T00:18:01;7.30;99.90
67890;DHT22;54685;52.082;5.426;2022-11-15T00:20:46;7.30;99.90
67890;DHT22;54685;52.082;5.426;2022-11-15T00:23:33;7.30;99.90
67890;DHT22;54685;52.082;5.426;2022-11-15T00:26:18;7.30;99.90
67890;DHT22;54685;52.082;5.426;2022-11-15T00:29:04;7.30;99.90
67890;DHT22;54685;52.082;5.426;2022-11-15T00:31:49;7.40;99.90
67890;DHT22;54685;52.082;5.426;2022-11-15T00:34:35;7.40;99.90
67890;DHT22;54685;52.082;5.426;2022-11-15T00:37:20;7.40;99.90
67890;DHT22;54685;52.082;5.426;2022-11-15T00:40:06;7.40;99.90
67890;DHT22;54685;52.082;5.426;2022-11-15T00:42:51;7.40;99.90
67890;DHT22;54685;52.082;5.426;2022-11-15T00:45:37;7.40;99.90
67890;DHT22;54685;52.082;5.426;2022-11-15T00:48:22;7.40;99.90
67890;DHT22;54685;52.082;5.426;2022-11-15T00:51:08;7.40;99.90
67890;DHT22;54685;52.082;5.426;2022-11-15T00:53:53;7.40;99.90
67890;DHT22;54685;52.082;5.426;2022-11-15T00:56:39;7.40;99.90
67890;DHT22;54685;52.082;5.426;2022-11-15T00:59:24;7.40;99.90
67890;DHT22;54685;52.082;5.426;2022-11-15T01:02:09;7.50;99.90
67890;DHT22;54685;52.082;5.426;2022-11-15T01:04:55;7.50;99.90
67890;DHT22;54685;52.082;5.426;2022-11-15T01:07:40;7.50;99.90
67890;DHT22;54685;52.082;5.426;2022-11-15T01:10:25;7.50;99.90
67890;DHT22;54685;52.082;5.426;2022-11-15T01:13:11;7.50;99.90
67890;DHT22;54685;52.082;5.426;2022-11-15T01:15:57;7.60;99.90
67890;DHT22;54685;52.082;5.426;2022-11-15T01:18:44;7.60;99.90
67890;DHT22;54685;52.082;5.426;2022-11-15T01:21:29;7.60;99.90
67890;DHT22;54685;52.082;5.426;2022-11-15T01:24:15;7.60;99.90
67890;DHT22;54685;52.082;5.426;2022-11-15T01:27:00;7.70;99.90
67890;DHT22;54685;52.082;5.426;2022-11-15T01:29:46;7.70;99.90
67890;DHT22;54685;52.082;5.426;2022-11-15T01:32:31;7.70;99.90
67890;DHT22;54685;52.082;5.426;2022-11-15T01:35:17;7.80;99.90
67890;DHT22;54685;52.082;5.426;2022-11-15T01:38:02;7.80;99.90
67890;DHT22;54685;52.082;5.426;2022-11-15T01:40:48;7.80;99.90
67890;DHT22;54685;52.082;5.426;2022-11-15T01:43:35;7.90;99.90
67890;DHT22;54685;52.082;5.426;2022-11-15T01:49:13;7.90;99.90
67890;DHT22;54685;52.082;5.426;2022-11-15T01:52:02;7.90;99.90
67890;DHT22;54685;52.082;5.426;2022-11-15T01:54:51;7.90;99.90
67890;DHT22;54685;52.082;5.426;2022-11-15T01:57:39;8.00;99.90
67890;DHT22;54685;52.082;5.426;2022-11-15T02:00:27;8.00;99.90
67890;DHT22;54685;52.082;5.426;2022-11-15T02:03:13;8.00;99.90
67890;DHT22;54685;52.082;5.426;2022-11-15T02:05:59;8.00;99.90
67890;DHT22;54685;52.082;5.426;2022-11-15T02:08:44;8.00;99.90
67890;DHT22;54685;52.082;5.426;2022-11-15T02:11:30;8.10;99.90
67890;DHT22;54685;52.082;5.426;2022-11-15T02:14:18;8.10;99.90
67890;DHT22;54685;52.082;5.426;2022-11-15T02:17:29;8.20;99.90
67890;DHT22;54685;52.082;5.426;2022-11-15T02:23:50;8.20;99.90
67890;DHT22;54685;52.082;5.426;2022-11-15T02:39:15;8.30;99.90
67890;DHT22;54685;52.082;5.426;2022-11-15T02:42:08;8.40;99.90
67890;DHT22;54685;52.082;5.426;2022-11-15T02:45:21;8.40;99.90
67890;DHT22;54685;52.082;5.426;2022-11-15T02:48:09;8.50;99.90
67890;DHT22;54685;52.082;5.426;2022-11-15T02:50:56;8.50;99.90
67890;DHT22;54685;52.082;5.426;2022-11-15T02:53:42;8.50;99.90
67890;DHT22;54685;52.082;5.426;2022-11-15T02:56:28;8.60;99.90
67890;DHT22;54685;52.082;5.426;2022-11-15T03:05:21;8.60;99.90
67890;DHT22;54685;52.082;5.426;2022-11-15T03:08:11;8.70;99.90
67890;DHT22;54685;52.082;5.426;2022-11-15T03:11:19;8.70;99.90
67890;DHT22;54685;52.082;5.426;2022-11-15T03:14:22;8.80;99.90
67890;DHT22;54685;52.082;5.426;2022-11-15T03:20:13;8.90;99.90
67890;DHT22;54685;52.082;5.426;2022-11-15T03:23:11;8.90;99.90
67890;DHT22;54685;52.082;5.426;2022-11-15T03:25:59;8.90;99.90
67890;DHT22;54685;52.082;5.426;2022-11-15T03:28:53;8.90;99.90
67890;DHT22;54685;52.082;5.426;2022-11-15T03:31:44;9.00;99.90
67890;DHT22;54685;52.082;5.426;2022-11-15T03:34:37;9.00;99.90
67890;DHT22;54685;52.082;5.426;2022-11-15T03:37:32;9.10;99.90
67890;DHT22;54685;52.082;5.426;2022-11-15T03:40:24;9.10;99.90
67890;DHT22;54685;52.082;5.426;2022-11-15T03:43:28;9.10;99.90
67890;DHT22;54685;52.082;5.426;2022-11-15T03:46:21;9.20;99.90
67890;DHT22;54685;52.082;5.426;2022-11-15T03:49:15;9.20;99.90
67890;DHT22;54685;52.082;5.426;2022-11-15T03:52:04;9.20;99.90
67890;DHT22;54685;52.082;5.426;2022-11-15T03:54:52;9.20;99.90
67890;DHT22;54685;52.082;5.426;2022-11-15T03:57:38;9.20;99.90
67890;DHT22;54685;52.082;5.426;2022-11-15T04:00:23;9.30;99.90
67890;DHT22;54685;52.082;5.426;2022-11-15T04:03:08;9.30;99.90
67890;DHT22;54685;52.082;5.426;2022-11-15T04:05:54;9.40;99.90
67890;DHT22;54685;52.082;5.426;2022-11-15T04:08:39;9.40;99.90
67890;DHT22;54685;52.082;5.426;2022-11-15T04:11:25;9.40;99.90
67890;DHT22;54685;52.082;5.426;2022-11-15T04:14:10;9.50;99.90
67890;DHT22;54685;52.082;5.426;2022-11-15T04:16:55;9.50;99.90
67890;DHT22;54685;52.082;5.426;2022-11-15T04:19:41;9.50;99.90
67890;DHT22;54685;52.082;5.426;2022-11-15T04:22:45;9.50;99.90
67890;DHT22;54685;52.082;5.426;2022-11-15T04:25:51;9.50;99.90
67890;DHT22;54685;52.082;5.426;2022-11-15T04:28:37;9.60;99.90
67890;DHT22;54685;52.082;5.426;2022-11-15T04:31:46;9.60;99.90
67890;DHT22;54685;52.082;5.426;2022-11-15T04:34:31;9.70;99.90
67890;DHT22;54685;52.082;5.426;2022-11-15T04:37:17;9.70;99.90
67890;DHT22;54685;52.082;5.426;2022-11-15T04:40:03;9.70;99.90
67890;DHT22;54685;52.082;5.426;2022-11-15T04:42:48;9.70;99.90
67890;DHT22;54685;52.082;5.426;2022-11-15T04:45:34;9.70;99.90
67890;DHT22;54685;52.082;5.426;2022-11-15T04:48:19;9.70;99.90
67890;DHT22;54685;52.082;5.426;2022-11-15T04:51:05;9.70;99.90
67890;DHT22;54685;52.082;5.426;2022-11-15T04:53:50;9.80;99.90
67890;DHT22;54685;52.082;5.426;2022-11-15T04:56:36;9.80;99.90
67890;DHT22;54685;52.082;5.426;2022-11-15T04:59:21;9.80;99.90
67890;DHT22;54685;52.082;5.426;2022-11-15T05:02:07;9.80;99.90
67890;DHT22;54685;52.082;5.426;2022-11-15T05:04:52;9.80;99.90
67890;DHT22;54685;52.082;5.426;2022-11-15T05:07:38;9.80;99.90
67890;DHT22;54685;52.082;5.426;2022-11-15T05:10:23;9.90;99.90
67890;DHT22;54685;52.082;5.426;2022-11-15T05:13:09;9.90;99.90
67890;DHT22;54685;52.082;5.426;2022-11-15T05:15:54;9.90;99.90
67890;DHT22;54685;52.082;5.426;2022-11-15T05:18:40;9.90;99.90
67890;DHT22;54685;52.082;5.426;2022-11-15T05:21:25;9.90;99.90
67890;DHT22;54685;52.082;5.426;2022-11-15T05:24:10;9.90;99.90
67890;DHT22;54685;52.082;5.426;2022-11-15T05:26:56;9.90;99.90
67890;DHT22;54685;52.082;5.426;2022-11-15T05:29:41;10.00;99.90
67890;DHT22;54685;52.082;5.426;2022-11-15T05:32:28;10.00;99.90
67890;DHT22;54685;52.082;5.426;2022-11-15T05:35:37;10.00;99.90
67890;DHT22;54685;52.082;5.426;2022-11-15T05:38:23;10.00;99.90
67890;DHT22;54685;52.082;5.426;2022-11-15T05:41:09;10.00;99.90
67890;DHT22;54685;52.082;5.426;2022-11-15T05:43:55;10.00;99.90
67890;DHT22;54685;52.082;5.426;2022-11-15T05:46:42;10.10;99.90
67890;DHT22;54685;52.082;5.426;2022-11-15T05:49:31;10.10;99.90
67890;DHT22;54685;52.082;5.426;2022-11-15T05:52:24;10.10;99.90
67890;DHT22;54685;52.082;5.426;2022-11-15T05:55:10;10.20;99.90
67890;DHT22;54685;52.082;5.426;2022-11-15T05:57:57;10.20;99.90
67890;DHT22;54685;52.082;5.426;2022-11-15T06:00:42;10.20;99.90
67890;DHT22;54685;52.082;5.426;2022-11-15T06:03:28;10.20;99.90
67890;DHT22;54685;52.082;5.426;2022-11-15T06:06:14;10.20;99.90
67890;DHT22;54685;52.082;5.426;2022-11-15T06:09:00;10.20;99.90
67890;DHT22;54685;52.082;5.426;2022-11-15T06:11:46;10.20;99.90
67890;DHT22;54685;52.082;5.426;2022-11-15T06:14:31;10.30;99.90
67890;DHT22;54685;52.082;5.426;2022-11-15T06:17:16;10.30;99.90
67890;DHT22;54685;52.082;5.426;2022-11-15T06:20:02;10.30;99.90
67890;DHT22;54685;52.082;5.426;2022-11-15T06:22:48;10.30;99.90
67890;DHT22;54685;52.082;5.426;2022-11-15T06:25:34;10.40;99.90
67890;DHT22;54685;52.082;5.426;2022-11-15T06:28:19;10.40;99.90
67890;DHT22;54685;52.082;5.426;2022-11-15T06:31:06;10.40;99.90
67890;DHT22;54685;52.082;5.426;2022-11-15T06:33:52;10.40;99.90
67890;DHT22;54685;52.082;5.426;2022-11-15T06:36:38;10.40;99.90
67890;DHT22;54685;52.082;5.426;2022-11-15T06:39:23;10.40;99.90
67890;DHT22;54685;52.082;5.426;2022-11-15T06:42:09;10.40;99.90
67890;DHT22;54685;52.082;5.426;2022-11-15T06:44:54;10.50;99.90
67890;DHT22;54685;52.082;5.426;2022-11-15T06:47:46;10.50;99.90
67890;DHT22;54685;52.082;5.426;2022-11-15T06:50:32;10.50;99.90
67890;DHT22;54685;52.082;5.426;2022-11-15T06:53:17;10.50;99.90
67890;DHT22;54685;52.082;5.426;2022-11-15T06:56:05;10.50;99.90
67890;DHT22;54685;52.082;5.426;2022-11-15T06:58:50;10.50;99.90
67890;DHT22;54685;52.082;5.426;2022-11-15T07:01:36;10.40;99.90
67890;DHT22;54685;52.082;5.426;2022-11-15T07:04:22;10.50;99.90
67890;DHT22;54685;52.082;5.426;2022-11-15T07:07:07;10.50;99.90
67890;DHT22;54685;52.082;5.426;2022-11-15T07:09:53;10.50;99.90
67890;DHT22;54685;52.082;5.426;2022-11-15T07:12:38;10.50;99.90
67890;DHT22;54685;52.082;5.426;2022-11-15T07:15:25;10.50;99.90
67890;DHT22;54685;52.082;5.426;2022-11-15T07:18:11;10.50;99.90
67890;DHT22;54685;52.082;5.426;2022-11-15T07:21:00;10.50;99.90
67890;DHT22;54685;52.082;5.426;2022-11-15T07:23:46;10.50;99.90
67890;DHT22;54685;52.082;5.426;2022-11-15T07:26:31;10.60;99.90
67890;DHT22;54685;52.082;5.426;2022-11-15T07:29:17;10.60;99.90
67890;DHT22;54685;52.082;5.426;2022-11-15T07:32:02;10.60;99.90
67890;DHT22;54685;52.082;5.426;2022-11-15T07:34:48;10.60;99.90
67890;DHT22;54685;52.082;5.426;2022-11-15T07:37:33;10.60;99.90
67890;DHT22;54685;52.082;5.426;2022-11-15T07:40:19;10.60;99.90
67890;DHT22;54685;52.082;5.426;2022-11-15T07:43:06;10.60;99.90
67890;DHT22;54685;52.082;5.426;2022-11-15T07:45:52;10.60;99.90
67890;DHT22;54685;52.082;5.426;2022-11-15T07:48:43;10.60;99.90
67890;DHT22;54685;52.082;5.426;2022-11-15T07:51:29;10.70;99.90
67890;DHT22;54685;52.082;5.426;2022-11-15T07:54:15;10.70;99.90
67890;DHT22;54685;52.082;5.426;2022-11-15T07:57:01;10.70;99.90
67890;DHT22;54685;52.082;5.426;2022-11-15T07:59:51;10.70;99.90
67890;DHT22;54685;52.082;5.426;2022-11-15T08:02:37;10.60;99.90
67890;DHT22;54685;52.082;5.426;2022-11-15T08:05:22;10.60;99.90
67890;DHT22;54685;52.082;5.426;2022-11-15T08:08:10;10.70;99.90
67890;DHT22;54685;52.082;5.426;2022-11-15T08:10:57;10.70;99.90
67890;DHT22;54685;52.082;5.426;2022-11-15T08:13:43;10.70;99.90
67890;DHT22;54685;52.082;5.426;2022-11-15T08:16:29;10.70;99.90
67890;DHT22;54685;52.082;5.426;2022-11-15T08:19:14;10.70;99.90
67890;DHT22;54685;52.082;5.426;2022-11-15T08:22:00;10.80;99.90
67890;DHT22;54685;52.082;5.426;2022-11-15T08:24:48;10.70;99.90
67890;DHT22;54685;52.082;5.426;2022-11-15T08:27:33;10.80;99.90
67890;DHT22;54685;52.082;5.426;2022-11-15T08:30:19;10.80;99.90
67890;DHT22;54685;52.082;5.426;2022-11-15T08:33:05;10.80;99.90
67890;DHT22;54685;52.082;5.426;2022-11-15T08:35:50;10.90;99.90
67890;DHT22;54685;52.082;5.426;2022-11-15T08:38:36;10.90;99.90
67890;DHT22;54685;52.082;5.426;2022-11-15T08:41:28;10.90;99.90
67890;DHT22;54685;52.082;5.426;2022-11-15T08:44:15;10.90;99.90
67890;DHT22;54685;52.082;5.426;2022-11-15T08:47:01;10.90;99.90
67890;DHT22;54685;52.082;5.426;2022-11-15T08:49:46;10.90;99.90
67890;DHT22;54685;52.082;5.426;2022-11-15T08:52:31;10.90;99.90
67890;DHT22;54685;52.082;5.426;2022-11-15T08:55:17;11.00;99.90
67890;DHT22;54685;52.082;5.426;2022-11-15T08:58:03;11.00;99.90
67890;DHT22;54685;52.082;5.426;2022-11-15T09:00:49;11.00;99.90
67890;DHT22;54685;52.082;5.426;2022-11-15T09:03:35;11.00;99.90
67890;DHT22;54685;52.082;5.426;2022-11-15T09:06:20;11.10;99.90
67890;DHT22;54685;52.082;5.426;2022-11-15T09:09:06;11.10;99.90
67890;DHT22;54685;52.082;5.426;2022-11-15T09:11:51;11.20;99.90
67890;DHT22;54685;52.082;5.426;2022-11-15T09:14:43;11.30;99.90
67890;DHT22;54685;52.082;5.426;2022-11-15T09:17:29;11.30;99.90
67890;DHT22;54685;52.082;5.426;2022-11-15T09:20:15;11.40;99.90
67890;DHT22;54685;52.082;5.426;2022-11-15T09:23:01;11.40;99.90
67890;DHT22;54685;52.082;5.426;2022-11-15T09:25:47;11.40;99.90
67890;DHT22;54685;52.082;5.426;2022-11-15T09:28:33;11.40;99.90
67890;DHT22;54685;52.082;5.426;2022-11-15T09:31:20;11.40;99.90
67890;DHT22;54685;52.082;5.426;2022-11-15T09:34:06;11.40;99.90
67890;DHT22;54685;52.082;5.426;2022-11-15T09:36:52;11.50;99.90
67890;DHT22;54685;52.082;5.426;2022-11-15T09:39:37;11.50;99.90
67890;DHT22;54685;52.082;5.426;2022-11-15T09:46:13;11.50;99.90
67890;DHT22;54685;52.082;5.426;2022-11-15T09:49:14;11.50;99.90
67890;DHT22;54685;52.082;5.426;2022-11-15T09:52:11;11.50;99.90
67890;DHT22;54685;52.082;5.426;2022-11-15T09:54:39;11.50;99.90
67890;DHT22;54685;52.082;5.426;2022-11-15T09:57:37;11.50;99.90
67890;DHT22;54685;52.082;5.426;2022-11-15T10:00:22;11.60;99.90
67890;DHT22;54685;52.082;5.426;2022-11-15T10:05:47;11.70;99.90
67890;DHT22;54685;52.082;5.426;2022-11-15T10:08:35;11.70;99.90
67890;DHT22;54685;52.082;5.426;2022-11-15T10:11:08;11.70;99.90
67890;DHT22;54685;52.082;5.426;2022-11-15T10:14:07;11.80;99.90
67890;DHT22;54685;52.082;5.426;2022-11-15T10:22:45;11.90;99.90
67890;DHT22;54685;52.082;5.426;2022-11-15T10:25:27;11.90;99.90
67890;DHT22;54685;52.082;5.426;2022-11-15T10:30:48;12.10;99.90
67890;DHT22;54685;52.082;5.426;2022-11-15T10:33:34;12.20;99.90
67890;DHT22;54685;52.082;5.426;2022-11-15T10:41:39;12.40;99.90
67890;DHT22;54685;52.082;5.426;2022-11-15T10:46:41;12.30;99.90
67890;DHT22;54685;52.082;5.426;2022-11-15T10:49:19;12.40;99.90
67890;DHT22;54685;52.082;5.426;2022-11-15T10:51:54;12.40;99.90
67890;DHT22;54685;52.082;5.426;2022-11-15T10:54:25;12.40;99.90
67890;DHT22;54685;52.082;5.426;2022-11-15T10:56:57;12.40;99.90
67890;DHT22;54685;52.082;5.426;2022-11-15T10:59:32;12.40;99.90
67890;DHT22;54685;52.082;5.426;2022-11-15T11:02:28;12.90;99.90
67890;DHT22;54685;52.082;5.426;2022-11-15T11:04:56;13.20;99.90
67890;DHT22;54685;52.082;5.426;2022-11-15T11:07:30;13.80;99.90
67890;DHT22;54685;52.082;5.426;2022-11-15T11:12:30;14.30;99.90
67890;DHT22;54685;52.082;5.426;2022-11-15T11:14:59;14.20;99.90
67890;DHT22;54685;52.082;5.426;2022-11-15T11:20:36;14.40;99.90
67890;DHT22;54685;52.082;5.426;2022-11-15T11:23:29;14.20;99.90
67890;DHT22;54685;52.082;5.426;2022-11-15T11:32:15;14.10;99.90
67890;DHT22;54685;52.082;5.426;2022-11-15T11:34:49;14.10;99.90
67890;DHT22;54685;52.082;5.426;2022-11-15T11:40:14;13.90;99.90
67890;DHT22;54685;52.082;5.426;2022-11-15T11:48:13;13.50;99.90
67890;DHT22;54685;52.082;5.426;2022-11-15T11:50:42;13.50;99.90
67890;DHT22;54685;52.082;5.426;2022-11-15T11:53:35;13.50;99.90
67890;DHT22;54685;52.082;5.426;2022-11-15T11:56:15;13.50;99.90
67890;DHT22;54685;52.082;5.426;2022-11-15T11:58:44;13.50;99.90
67890;DHT22;54685;52.082;5.426;2022-11-15T12:01:25;13.40;99.90
67890;DHT22;54685;52.082;5.426;2022-11-15T12:06:55;13.50;99.90
67890;DHT22;54685;52.082;5.426;2022-11-15T12:15:02;13.40;99.90
67890;DHT22;54685;52.082;5.426;2022-11-15T12:17:31;13.40;99.90
67890;DHT22;54685;52.082;5.426;2022-11-15T12:20:30;13.40;99.90
67890;DHT22;54685;52.082;5.426;2022-11-15T12:23:07;13.50;99.90
67890;DHT22;54685;52.082;5.426;2022-11-15T12:25:59;13.50;99.90
67890;DHT22;54685;52.082;5.426;2022-11-15T12:28:39;13.40;99.90
67890;DHT22;54685;52.082;5.426;2022-11-15T12:36:48;13.60;99.90
67890;DHT22;54685;52.082;5.426;2022-11-15T12:39:16;13.60;99.90
67890;DHT22;54685;52.082;5.426;2022-11-15T12:44:58;13.70;99.90
67890;DHT22;54685;52.082;5.426;2022-11-15T13:02:42;13.50;99.90
67890;DHT22;54685;52.082;5.426;2022-11-15T13:17:44;13.40;99.90
67890;DHT22;54685;52.082;5.426;2022-11-15T13:23:01;13.20;99.90
67890;DHT22;54685;52.082;5.426;2022-11-15T13:33:17;13.10;99.90
67890;DHT22;54685;52.082;5.426;2022-11-15T13:35:51;13.00;99.90
67890;DHT22;54685;52.082;5.426;2022-11-15T13:38:30;12.90;99.90
67890;DHT22;54685;52.082;5.426;2022-11-15T13:40:59;12.90;99.90
67890;DHT22;54685;52.082;5.426;2022-11-15T13:43:31;12.80;99.90
67890;DHT22;54685;52.082;5.426;2022-11-15T13:46:13;12.70;99.90
67890;DHT22;54685;52.082;5.426;2022-11-15T13:48:43;12.70;99.90
67890;DHT22;54685;52.082;5.426;2022-11-15T13:56:31;12.50;99.90
67890;DHT22;54685;52.082;5.426;2022-11-15T13:58:58;12.50;99.90
67890;DHT22;54685;52.082;5.426;2022-11-15T14:01:28;12.40;99.90
67890;DHT22;54685;52.082;5.426;2022-11-15T14:04:00;12.40;99.90
67890;DHT22;54685;52.082;5.426;2022-11-15T14:06:28;12.50;99.90
67890;DHT22;54685;52.082;5.426;2022-11-15T14:11:52;12.30;99.90
67890;DHT22;54685;52.082;5.426;2022-11-15T14:14:22;12.20;99.90
67890;DHT22;54685;52.082;5.426;2022-11-15T14:16:52;12.30;99.90
67890;DHT22;54685;52.082;5.426;2022-11-15T14:22:19;12.30;99.90
67890;DHT22;54685;52.082;5.426;2022-11-15T14:25:29;12.30;99.90
67890;DHT22;54685;52.082;5.426;2022-11-15T14:28:16;12.30;99.90
67890;DHT22;54685;52.082;5.426;2022-11-15T14:30:44;12.30;99.90
67890;DHT22;54685;52.082;5.426;2022-11-15T14:33:29;12.30;99.90
67890;DHT22;54685;52.082;5.426;2022-11-15T14:35:58;12.30;99.90
67890;DHT22;54685;52.082;5.426;2022-11-15T14:38:25;12.30;99.90
67890;DHT22;54685;52.082;5.426;2022-11-15T14:40:52;12.40;99.90
67890;DHT22;54685;52.082;5.426;2022-11-15T14:43:21;12.30;99.90
67890;DHT22;54685;52.082;5.426;2022-11-15T14:45:47;12.40;99.90
67890;DHT22;54685;52.082;5.426;2022-11-15T14:48:14;12.30;99.90
67890;DHT22;54685;52.082;5.426;2022-11-15T14:50:41;12.30;99.90
67890;DHT22;54685;52.082;5.426;2022-11-15T14:53:12;12.40;99.90
67890;DHT22;54685;52.082;5.426;2022-11-15T14:55:40;12.30;99.90
67890;DHT22;54685;52.082;5.426;2022-11-15T14:58:07;12.30;99.90
67890;DHT22;54685;52.082;5.426;2022-11-15T15:00:38;12.30;99.90
67890;DHT22;54685;52.082;5.426;2022-11-15T15:03:06;12.40;99.90
67890;DHT22;54685;52.082;5.426;2022-11-15T15:08:04;12.30;99.90
67890;DHT22;54685;52.082;5.426;2022-11-15T15:10:37;12.30;99.90
67890;DHT22;54685;52.082;5.426;2022-11-15T15:13:22;12.30;99.90
67890;DHT22;54685;52.082;5.426;2022-11-15T15:15:49;12.20;99.90
67890;DHT22;54685;52.082;5.426;2022-11-15T15:18:18;12.20;99.90
67890;DHT22;54685;52.082;5.426;2022-11-15T15:20:56;12.30;99.90
67890;DHT22;54685;52.082;5.426;2022-11-15T15:23:26;12.20;99.90
67890;DHT22;54685;52.082;5.426;2022-11-15T15:25:55;12.20;99.90
67890;DHT22;54685;52.082;5.426;2022-11-15T15:28:22;12.30;99.90
67890;DHT22;54685;52.082;5.426;2022-11-15T15:30:49;12.30;99.90
67890;DHT22;54685;52.082;5.426;2022-11-15T15:33:16;12.30;99.90
67890;DHT22;54685;52.082;5.426;2022-11-15T15:35:43;12.20;99.90
67890;DHT22;54685;52.082;5.426;2022-11-15T15:38:11;12.20;99.90
67890;DHT22;54685;52.082;5.426;2022-11-15T15:40:39;12.20;99.90
67890;DHT22;54685;52.082;5.426;2022-11-15T15:43:05;12.10;99.90
67890;DHT22;54685;52.082;5.426;2022-11-15T15:45:37;12.00;99.90
67890;DHT22;54685;52.082;5.426;2022-11-15T15:48:07;12.10;99.90
67890;DHT22;54685;52.082;5.426;2022-11-15T15:50:35;12.00;99.90
67890;DHT22;54685;52.082;5.426;2022-11-15T15:53:04;12.00;99.90
67890;DHT22;54685;52.082;5.426;2022-11-15T15:55:31;12.00;99.90
67890;DHT22;54685;52.082;5.426;2022-11-15T15:57:58;12.00;99.90
67890;DHT22;54685;52.082;5.426;2022-11-15T16:00:25;12.00;99.90
67890;DHT22;54685;52.082;5.426;2022-11-15T16:02:52;12.00;99.90
67890;DHT22;54685;52.082;5.426;2022-11-15T16:05:21;12.00;99.90
67890;DHT22;54685;52.082;5.426;2022-11-15T16:07:48;12.00;99.90
67890;DHT22;54685;52.082;5.426;2022-11-15T16:10:29;12.00;99.90
67890;DHT22;54685;52.082;5.426;2022-11-15T16:12:57;12.00;99.90
67890;DHT22;54685;52.082;5.426;2022-11-15T16:15:26;12.00;99.90
67890;DHT22;54685;52.082;5.426;2022-11-15T16:17:58;12.00;99.90
67890;DHT22;54685;52.082;5.426;2022-11-15T16:22:58;12.00;99.90
67890;DHT22;54685;52.082;5.426;2022-11-15T16:25:45;11.90;99.90
67890;DHT22;54685;52.082;5.426;2022-11-15T16:28:20;12.00;99.90
67890;DHT22;54685;52.082;5.426;2022-11-15T16:30:47;12.00;99.90
67890;DHT22;54685;52.082;5.426;2022-11-15T16:33:22;12.00;99.90
67890;DHT22;54685;52.082;5.426;2022-11-15T16:35:49;11.90;99.90
67890;DHT22;54685;52.082;5.426;2022-11-15T16:38:16;12.00;99.90
67890;DHT22;54685;52.082;5.426;2022-11-15T16:40:43;12.00;99.90
67890;DHT22;54685;52.082;5.426;2022-11-15T16:43:10;12.00;99.90
67890;DHT22;54685;52.082;5.426;2022-11-15T16:45:37;11.90;99.90
67890;DHT22;54685;52.082;5.426;2022-11-15T16:48:04;12.00;99.90
67890;DHT22;54685;52.082;5.426;2022-11-15T16:50:33;12.00;99.90
67890;DHT22;54685;52.082;5.426;2022-11-15T16:53:06;12.00;99.90
67890;DHT22;54685;52.082;5.426;2022-11-15T16:55:33;12.00;99.90
67890;DHT22;54685;52.082;5.426;2022-11-15T16:58:00;12.00;99.90
67890;DHT22;54685;52.082;5.426;2022-11-15T17:00:27;12.10;99.90
67890;DHT22;54685;52.082;5.426;2022-11-15T17:02:54;12.20;99.90
67890;DHT22;54685;52.082;5.426;2022-11-15T17:05:23;12.20;99.90
67890;DHT22;54685;52.082;5.426;2022-11-15T17:07:50;12.30;99.90
67890;DHT22;54685;52.082;5.426;2022-11-15T17:10:22;12.30;99.90
67890;DHT22;54685;52.082;5.426;2022-11-15T17:12:50;12.30;99.90
67890;DHT22;54685;52.082;5.426;2022-11-15T17:15:17;12.30;99.90
67890;DHT22;54685;52.082;5.426;2022-11-15T17:17:50;12.40;99.90
67890;DHT22;54685;52.082;5.426;2022-11-15T17:20:18;12.30;99.90
67890;DHT22;54685;52.082;5.426;2022-11-15T17:22:45;12.30;99.90
67890;DHT22;54685;52.082;5.426;2022-11-15T17:25:13;12.20;99.90
67890;DHT22;54685;52.082;5.426;2022-11-15T17:27:41;12.10;99.90
67890;DHT22;54685;52.082;5.426;2022-11-15T17:30:11;12.00;99.90
67890;DHT22;54685;52.082;5.426;2022-11-15T17:32:37;11.90;99.90
67890;DHT22;54685;52.082;5.426;2022-11-15T17:35:05;11.90;99.90
67890;DHT22;54685;52.082;5.426;2022-11-15T17:37:41;11.90;99.90
67890;DHT22;54685;52.082;5.426;2022-11-15T17:40:08;11.80;99.90
67890;DHT22;54685;52.082;5.426;2022-11-15T17:42:35;11.70;99.90
67890;DHT22;54685;52.082;5.426;2022-11-15T17:45:02;11.70;99.90
67890;DHT22;54685;52.082;5.426;2022-11-15T17:47:35;11.70;99.90
67890;DHT22;54685;52.082;5.426;2022-11-15T17:50:02;11.70;99.90
67890;DHT22;54685;52.082;5.426;2022-11-15T17:52:29;11.70;99.90
67890;DHT22;54685;52.082;5.426;2022-11-15T17:54:56;11.60;99.90
67890;DHT22;54685;52.082;5.426;2022-11-15T17:57:22;11.60;99.90
67890;DHT22;54685;52.082;5.426;2022-11-15T17:59:49;11.60;99.90
67890;DHT22;54685;52.082;5.426;2022-11-15T18:02:16;11.60;99.90
67890;DHT22;54685;52.082;5.426;2022-11-15T18:04:43;11.60;99.90
67890;DHT22;54685;52.082;5.426;2022-11-15T18:07:10;11.50;99.90
67890;DHT22;54685;52.082;5.426;2022-11-15T18:09:38;11.50;99.90
67890;DHT22;54685;52.082;5.426;2022-11-15T18:12:08;11.40;99.90
67890;DHT22;54685;52.082;5.426;2022-11-15T18:14:35;11.40;99.90
67890;DHT22;54685;52.082;5.426;2022-11-15T18:17:02;11.30;99.90
67890;DHT22;54685;52.082;5.426;2022-11-15T18:19:29;11.30;99.90
67890;DHT22;54685;52.082;5.426;2022-11-15T18:21:56;11.30;99.90
67890;DHT22;54685;52.082;5.426;2022-11-15T18:24:24;11.30;99.90
67890;DHT22;54685;52.082;5.426;2022-11-15T18:26:51;11.30;99.90
67890;DHT22;54685;52.082;5.426;2022-11-15T18:29:18;11.30;99.90
67890;DHT22;54685;52.082;5.426;2022-11-15T18:31:46;11.30;99.90
67890;DHT22;54685;52.082;5.426;2022-11-15T18:34:25;11.30;99.90
67890;DHT22;54685;52.082;5.426;2022-11-15T18:36:54;11.30;99.90
67890;DHT22;54685;52.082;5.426;2022-11-15T18:39:21;11.30;99.90
67890;DHT22;54685;52.082;5.426;2022-11-15T18:41:48;11.20;99.90
67890;DHT22;54685;52.082;5.426;2022-11-15T18:44:16;11.20;99.90
67890;DHT22;54685;52.082;5.426;2022-11-15T18:46:43;11.20;99.90
67890;DHT22;54685;52.082;5.426;2022-11-15T18:49:14;11.20;99.90
67890;DHT22;54685;52.082;5.426;2022-11-15T18:51:42;11.20;99.90
67890;DHT22;54685;52.082;5.426;2022-11-15T18:54:11;11.20;99.90
67890;DHT22;54685;52.082;5.426;2022-11-15T18:56:38;11.20;99.90
67890;DHT22;54685;52.082;5.426;2022-11-15T18:59:05;11.20;99.90
67890;DHT22;54685;52.082;5.426;2022-11-15T19:01:36;11.20;99.90
67890;DHT22;54685;52.082;5.426;2022-11-15T19:04:09;11.10;99.90
67890;DHT22;54685;52.082;5.426;2022-11-15T19:06:38;11.10;99.90
67890;DHT22;54685;52.082;5.426;2022-11-15T19:09:07;11.20;99.90
67890;DHT22;54685;52.082;5.426;2022-11-15T19:11:35;11.20;99.90
67890;DHT22;54685;52.082;5.426;2022-11-15T19:14:04;11.20;99.90
67890;DHT22;54685;52.082;5.426;2022-11-15T19:16:39;11.20;99.90
67890;DHT22;54685;52.082;5.426;2022-11-15T19:19:11;11.10;99.90